Terminal Aerodrome Forecast
Issued by NWS Twin Cities, MN

Home | Current Version | Previous Version | Text Only | Print | Product List | Glossary Off
Versions: 1 2 3 4 5 6 7 8 9 10 11 12 13 14 15 16 17 18 19 20 21 22 23 24 25 26 27 28

000
FTUS43 KMPX 050243 AAA
TAFMSP
TAF AMD
KMSP 050243Z 0503/0606 30009KT P6SM SKC
     FM050900 28006KT P6SM SKC
     FM051900 22010KT P6SM SKC
     FM060000 18010KT P6SM SCT150=

USA.gov is the U.S. government's official web portal to all federal, state and local government web resources and services.